Time;durP1;ratioP1;P1;durP2;ratioP2;P2;SDS_P1;SDS_P2;PMS_P1;PMS_P2;Temp;Humidity;BMP_temperature;BMP_pressure;BME280_temperature;BME280_humidity;BME280_pressure;Samples;Min_cycle;Max_cycle;Signal;HPM_P1;HPM_P2
2023/02/13 00:01:11;;;;;;;300.00;281.80;;;6.40;95.90;;;;;;5015934;28;20197;-87
2023/02/13 00:03:36;;;;;;;299.70;281.50;;;6.40;96.00;;;;;;5014710;28;20201;-86
2023/02/13 00:06:02;;;;;;;298.27;279.93;;;6.50;96.00;;;;;;5014863;28;20177;-87
2023/02/13 00:08:28;;;;;;;306.57;288.13;;;6.50;96.00;;;;;;5016122;28;20172;-86
2023/02/13 00:10:53;;;;;;;316.33;297.50;;;6.40;96.00;;;;;;5014866;28;20185;-87
2023/02/13 00:13:19;;;;;;;304.10;285.40;;;6.40;96.00;;;;;;5016122;28;20209;-87
2023/02/13 00:15:44;;;;;;;319.27;299.87;;;6.50;96.00;;;;;;5016196;28;20263;-87
2023/02/13 00:18:10;;;;;;;327.20;307.67;;;6.40;96.00;;;;;;5014506;28;20189;-87
2023/02/13 00:20:35;;;;;;;304.40;286.03;;;6.40;96.00;;;;;;5015827;28;20695;-87
2023/02/13 00:23:01;;;;;;;312.53;293.60;;;6.40;96.00;;;;;;5014651;28;20220;-87
2023/02/13 00:25:27;;;;;;;325.03;304.80;;;6.40;96.00;;;;;;5014371;28;20272;-87
2023/02/13 00:27:53;;;;;;;317.67;298.50;;;6.40;96.00;;;;;;5015888;28;20624;-86
2023/02/13 00:30:20;;;;;;;316.10;296.97;;;6.30;96.00;;;;;;5015939;28;20184;-87
2023/02/13 00:32:45;;;;;;;320.00;300.50;;;6.40;96.00;;;;;;5015448;28;20193;-88
2023/02/13 00:35:11;;;;;;;318.40;299.53;;;6.40;96.00;;;;;;5015581;28;20526;-87
2023/02/13 00:37:36;;;;;;;334.93;315.67;;;6.40;96.00;;;;;;5015576;28;20200;-87
2023/02/13 00:40:03;;;;;;;340.03;319.97;;;6.30;96.00;;;;;;5014163;28;20228;-86
2023/02/13 00:42:28;;;;;;;328.30;309.13;;;6.40;96.00;;;;;;5014382;28;20193;-87
2023/02/13 00:44:54;;;;;;;336.90;316.80;;;6.30;96.00;;;;;;5014577;28;20254;-87
2023/02/13 00:47:19;;;;;;;340.53;320.70;;;6.40;96.00;;;;;;5014174;28;20173;-88
2023/02/13 00:49:45;;;;;;;335.03;315.43;;;6.30;96.00;;;;;;5015342;28;20193;-88
2023/02/13 00:52:11;;;;;;;336.93;317.47;;;6.30;96.00;;;;;;5013711;28;20292;-86
2023/02/13 00:54:36;;;;;;;338.20;317.83;;;6.30;96.00;;;;;;5013792;28;20188;-89
2023/02/13 00:57:02;;;;;;;326.40;307.03;;;6.30;96.00;;;;;;5014964;28;20177;-87
2023/02/13 00:59:28;;;;;;;330.30;310.57;;;6.30;95.90;;;;;;5013847;28;20607;-87
2023/02/13 01:01:53;;;;;;;337.53;317.47;;;6.30;96.00;;;;;;5014740;28;20283;-87
2023/02/13 01:04:19;;;;;;;330.33;310.00;;;6.30;96.00;;;;;;5013144;28;20292;-88
2023/02/13 01:06:44;;;;;;;320.83;301.80;;;6.30;96.00;;;;;;5015689;28;20255;-87
2023/02/13 01:09:10;;;;;;;323.40;303.93;;;6.30;96.00;;;;;;5015951;28;20189;-87
2023/02/13 01:11:36;;;;;;;344.07;321.57;;;6.30;96.00;;;;;;5016156;28;20201;-88
2023/02/13 01:14:01;;;;;;;332.70;312.17;;;6.30;96.00;;;;;;5016069;28;20554;-87
2023/02/13 01:16:27;;;;;;;326.37;306.77;;;6.30;96.00;;;;;;5019200;28;20185;-86
2023/02/13 01:18:53;;;;;;;313.83;294.63;;;6.30;96.00;;;;;;5013300;28;20181;-86
2023/02/13 01:21:22;;;;;;;310.07;291.20;;;6.30;96.00;;;;;;5014590;28;20205;-88
2023/02/13 01:23:47;;;;;;;309.63;290.73;;;6.30;95.90;;;;;;5017605;28;20628;-88
2023/02/13 01:26:20;;;;;;;289.27;271.37;;;6.20;95.90;;;;;;5017838;28;20264;-87
2023/02/13 01:28:46;;;;;;;297.93;279.10;;;6.30;95.90;;;;;;5018437;28;20181;-87
2023/02/13 01:31:12;;;;;;;297.47;278.73;;;6.30;95.90;;;;;;5018721;28;20200;-87
2023/02/13 01:33:37;;;;;;;284.50;267.07;;;6.30;95.90;;;;;;5014306;28;20173;-88
2023/02/13 01:36:08;;;;;;;291.00;272.47;;;6.30;95.90;;;;;;5013510;28;20181;-88
2023/02/13 01:38:34;;;;;;;281.53;263.63;;;6.20;95.90;;;;;;5013349;28;20228;-88
2023/02/13 01:41:00;;;;;;;285.73;267.80;;;6.30;95.90;;;;;;5013426;28;20201;-87
2023/02/13 01:43:46;;;;;;;277.60;260.40;;;6.20;95.80;;;;;;5014477;28;20193;-87
2023/02/13 01:46:16;;;;;;;261.80;244.77;;;6.20;95.80;;;;;;5013095;28;20172;-88
2023/02/13 01:48:42;;;;;;;261.20;244.33;;;6.20;95.70;;;;;;5012974;28;20216;-88
2023/02/13 01:51:13;;;;;;;254.20;238.30;;;6.20;95.70;;;;;;5014355;28;20601;-87
2023/02/13 01:54:05;;;;;;;250.27;234.33;;;6.20;95.60;;;;;;5013253;28;20185;-89
2023/02/13 01:56:40;;;;;;;244.33;228.47;;;6.20;95.60;;;;;;5012319;28;20193;-89
2023/02/13 01:59:15;;;;;;;237.27;221.03;;;6.10;95.50;;;;;;5013126;28;20179;-86
2023/02/13 02:01:41;;;;;;;238.03;222.47;;;6.20;95.50;;;;;;5014015;28;20643;-88
2023/02/13 02:04:18;;;;;;;235.80;220.80;;;6.20;95.50;;;;;;5013983;28;20228;-86
2023/02/13 02:06:56;;;;;;;240.70;225.10;;;6.20;95.50;;;;;;5013089;28;20173;-88
2023/02/13 02:09:27;;;;;;;241.60;225.87;;;6.20;95.40;;;;;;5012765;28;20165;-87
2023/02/13 02:12:04;;;;;;;236.97;221.60;;;6.20;95.40;;;;;;5012728;28;20209;-88
2023/02/13 02:14:30;;;;;;;241.87;226.50;;;6.10;95.40;;;;;;5012504;28;20169;-87
2023/02/13 02:16:56;;;;;;;239.77;224.67;;;6.10;95.30;;;;;;5012777;28;20241;-88
2023/02/13 02:19:38;;;;;;;235.63;220.17;;;6.10;95.30;;;;;;5012880;28;20177;-88
2023/02/13 02:22:34;;;;;;;226.40;211.70;;;6.10;95.30;;;;;;5012977;28;20213;-87
2023/02/13 02:25:14;;;;;;;216.57;202.23;;;6.10;95.20;;;;;;5012487;28;20189;-88
2023/02/13 02:27:55;;;;;;;213.23;199.73;;;6.10;95.20;;;;;;5012471;28;20273;-87
2023/02/13 02:30:41;;;;;;;202.33;188.83;;;6.00;95.10;;;;;;5013807;28;20157;-89
2023/02/13 02:33:23;;;;;;;197.33;184.63;;;6.00;94.90;;;;;;5012323;28;20165;-88
2023/02/13 02:36:26;;;;;;;190.80;178.53;;;6.00;94.90;;;;;;5012562;28;20176;-89
2023/02/13 02:39:16;;;;;;;189.00;176.47;;;5.90;94.80;;;;;;5012544;28;20201;-88
2023/02/13 02:42:06;;;;;;;195.40;182.23;;;6.00;94.80;;;;;;5012384;28;20201;-86
2023/02/13 02:44:53;;;;;;;194.67;181.83;;;6.00;94.70;;;;;;5012472;28;20220;-87
2023/02/13 02:50:52;;;;;;;177.13;165.70;;;6.00;94.70;;;;;;5013738;28;20161;-87
2023/02/13 02:53:20;;;;;;;186.23;173.63;;;6.00;94.60;;;;;;5012514;28;20193;-88
2023/02/13 02:55:57;;;;;;;182.07;170.07;;;6.00;94.50;;;;;;5014575;28;20177;-88
2023/02/13 03:07:03;;;;;;;185.07;173.23;;;5.90;94.40;;;;;;5014402;28;20631;-87
2023/02/13 03:15:05;;;;;;;184.13;172.20;;;5.90;94.30;;;;;;5014345;28;20165;-88
2023/02/13 03:23:29;;;;;;;185.40;173.03;;;5.80;94.20;;;;;;5013397;28;20702;-88
2023/02/13 03:26:16;;;;;;;186.83;174.73;;;5.90;94.20;;;;;;5013143;28;20197;-87
2023/02/13 03:32:00;;;;;;;185.57;173.97;;;5.80;94.20;;;;;;5017393;28;20211;-87
2023/02/13 03:37:53;;;;;;;179.23;167.90;;;5.90;94.30;;;;;;5017052;28;20192;-88
2023/02/13 03:40:10;;;;;;;181.87;170.17;;;5.80;94.20;;;;;;5016971;28;20563;-87
2023/02/13 03:42:50;;;;;;;198.10;185.07;;;5.90;94.20;;;;;;5015557;28;20242;-88
2023/02/13 03:51:02;;;;;;;192.57;180.10;;;6.00;94.30;;;;;;5016896;28;20243;-88
2023/02/13 03:53:31;;;;;;;195.20;182.23;;;5.90;94.30;;;;;;5016624;28;20184;-88
2023/02/13 04:01:35;;;;;;;197.67;184.97;;;5.90;94.40;;;;;;5016754;28;20578;-89
2023/02/13 04:04:17;;;;;;;197.13;183.93;;;5.90;94.40;;;;;;5015342;28;20205;-88
2023/02/13 04:06:56;;;;;;;206.93;193.57;;;5.90;94.40;;;;;;5016641;28;20158;-88
2023/02/13 04:09:25;;;;;;;202.70;189.87;;;5.90;94.40;;;;;;5016668;28;20172;-88
2023/02/13 04:12:18;;;;;;;203.53;190.33;;;5.90;94.40;;;;;;5016491;28;20195;-88
2023/02/13 04:14:59;;;;;;;201.83;188.40;;;5.90;94.50;;;;;;5016721;28;20164;-87
2023/02/13 04:17:50;;;;;;;212.13;198.57;;;5.90;94.50;;;;;;5015223;28;20170;-87
2023/02/13 04:20:17;;;;;;;204.87;191.77;;;5.90;94.50;;;;;;5014927;28;20170;-88
2023/02/13 04:22:47;;;;;;;214.73;201.07;;;5.90;94.50;;;;;;5014700;28;20553;-88
2023/02/13 04:25:17;;;;;;;212.83;199.33;;;5.80;94.50;;;;;;5014793;28;20319;-88
2023/02/13 04:27:43;;;;;;;217.40;203.00;;;5.80;94.50;;;;;;5014926;28;20198;-87
2023/02/13 04:30:09;;;;;;;219.87;205.83;;;5.80;94.60;;;;;;5016158;28;20205;-88
2023/02/13 04:32:35;;;;;;;215.80;201.43;;;5.80;94.60;;;;;;5014436;28;20197;-88
2023/02/13 04:35:00;;;;;;;227.47;213.27;;;5.80;94.70;;;;;;5015916;28;20245;-88
2023/02/13 04:37:26;;;;;;;217.60;203.57;;;5.90;94.70;;;;;;5014305;28;20651;-88
2023/02/13 04:39:51;;;;;;;220.80;206.90;;;5.80;94.70;;;;;;5014515;28;20173;-88
2023/02/13 04:42:17;;;;;;;214.80;201.27;;;5.80;94.70;;;;;;5014164;28;20292;-88
2023/02/13 04:44:42;;;;;;;229.63;215.37;;;5.90;94.70;;;;;;5014534;28;20209;-88
2023/02/13 04:47:08;;;;;;;225.73;211.47;;;5.80;94.70;;;;;;5014713;28;20184;-87
2023/02/13 04:49:33;;;;;;;219.50;205.80;;;5.80;94.70;;;;;;5014511;28;20181;-88
2023/02/13 04:51:59;;;;;;;224.43;210.33;;;5.80;94.70;;;;;;5014359;28;20201;-88
2023/02/13 04:54:24;;;;;;;222.23;208.40;;;5.80;94.70;;;;;;5014278;28;20177;-88
2023/02/13 04:56:50;;;;;;;224.87;210.87;;;5.90;94.70;;;;;;5015410;28;20181;-88
2023/02/13 04:59:15;;;;;;;240.17;225.67;;;5.90;94.70;;;;;;5013890;28;20181;-88
2023/02/13 05:01:41;;;;;;;241.23;227.13;;;5.90;94.80;;;;;;5015467;28;20203;-88
2023/02/13 05:04:06;;;;;;;236.37;222.33;;;5.90;94.70;;;;;;5014002;28;20211;-87
2023/02/13 05:06:32;;;;;;;246.13;231.60;;;5.80;94.70;;;;;;5013929;28;20173;-88
2023/02/13 05:08:57;;;;;;;243.97;229.40;;;5.90;94.70;;;;;;5015597;28;20177;-88
2023/02/13 05:11:23;;;;;;;256.83;242.00;;;5.80;94.70;;;;;;5013706;28;20220;-88
2023/02/13 05:13:48;;;;;;;255.47;240.50;;;5.80;94.80;;;;;;5014152;28;20185;-87
2023/02/13 05:16:14;;;;;;;257.70;242.77;;;5.90;94.70;;;;;;5015061;28;20182;-88
2023/02/13 05:18:39;;;;;;;253.27;238.37;;;5.90;94.70;;;;;;5015120;28;20234;-88
2023/02/13 05:23:49;;;;;;;256.83;241.67;;;5.90;94.80;;;;;;5014707;28;20204;-89
2023/02/13 05:26:14;;;;;;;256.17;241.23;;;5.80;94.70;;;;;;5013472;28;20197;-89
2023/02/13 05:31:24;;;;;;;246.50;231.47;;;5.80;94.70;;;;;;5015117;28;20271;-87
2023/02/13 05:33:49;;;;;;;245.53;230.77;;;5.90;94.70;;;;;;5013599;28;20182;-87
2023/02/13 05:36:15;;;;;;;241.47;226.83;;;5.80;94.70;;;;;;5013573;28;20188;-88
2023/02/13 05:38:40;;;;;;;245.00;229.67;;;5.80;94.70;;;;;;5013426;28;20177;-87
2023/02/13 05:41:06;;;;;;;248.33;233.33;;;5.70;94.60;;;;;;5014372;28;20193;-88
2023/02/13 05:43:31;;;;;;;241.40;226.67;;;5.70;94.70;;;;;;5014335;28;20282;-88
2023/02/13 05:46:08;;;;;;;236.97;222.33;;;5.70;94.60;;;;;;5013248;28;20165;-87
2023/02/13 05:48:34;;;;;;;232.80;218.17;;;5.70;94.60;;;;;;5013011;28;20162;-88
2023/02/13 05:51:00;;;;;;;241.73;227.07;;;5.70;94.60;;;;;;5013224;28;20721;-89
2023/02/13 05:53:26;;;;;;;232.77;218.23;;;5.70;94.60;;;;;;5013252;28;20174;-88
2023/02/13 05:55:52;;;;;;;242.67;227.83;;;5.70;94.60;;;;;;5013336;28;20178;-88
2023/02/13 05:58:19;;;;;;;240.37;225.43;;;5.70;94.60;;;;;;5013232;28;20181;-88
2023/02/13 06:00:46;;;;;;;236.43;221.70;;;5.70;94.60;;;;;;5012883;28;20182;-88
2023/02/13 06:03:11;;;;;;;231.83;217.27;;;5.70;94.60;;;;;;5014352;28;20339;-88
2023/02/13 06:05:37;;;;;;;234.63;220.07;;;5.70;94.70;;;;;;5013207;28;20256;-88
2023/02/13 06:08:03;;;;;;;236.20;221.57;;;5.70;94.60;;;;;;5012973;28;20169;-89
2023/02/13 06:10:28;;;;;;;228.50;214.40;;;5.70;94.60;;;;;;5014222;28;20170;-88
2023/02/13 06:12:54;;;;;;;230.43;215.73;;;5.70;94.60;;;;;;5014042;28;20197;-88
2023/02/13 06:15:19;;;;;;;231.83;216.93;;;5.60;94.50;;;;;;5012783;28;20643;-89
2023/02/13 06:17:45;;;;;;;226.07;211.87;;;5.50;94.50;;;;;;5012815;28;20196;-87
2023/02/13 06:20:11;;;;;;;196.47;183.00;;;5.50;94.50;;;;;;5014127;28;20177;-88
2023/02/13 06:22:36;;;;;;;192.50;179.37;;;5.50;94.60;;;;;;5013055;28;20201;-87
2023/02/13 06:25:01;;;;;;;194.90;181.80;;;5.50;94.60;;;;;;5014147;28;20209;-87
2023/02/13 06:27:27;;;;;;;194.43;181.23;;;5.60;94.60;;;;;;5012966;28;20560;-87
2023/02/13 06:29:52;;;;;;;193.77;180.73;;;5.60;94.70;;;;;;5014613;28;20252;-88
2023/02/13 06:32:18;;;;;;;194.20;180.67;;;5.60;94.60;;;;;;5014447;28;20617;-87
2023/02/13 06:34:43;;;;;;;182.97;169.90;;;5.60;94.60;;;;;;5013157;28;20192;-87
2023/02/13 06:37:09;;;;;;;202.50;188.73;;;5.60;94.60;;;;;;5013275;28;20173;-87
2023/02/13 06:39:34;;;;;;;201.97;188.57;;;5.50;94.60;;;;;;5012679;28;20669;-88
2023/02/13 06:42:00;;;;;;;202.70;189.13;;;5.50;94.70;;;;;;5012653;28;20209;-88
2023/02/13 06:44:25;;;;;;;204.23;190.17;;;5.50;94.70;;;;;;5012321;28;20666;-88
2023/02/13 06:46:51;;;;;;;195.67;181.93;;;5.60;94.80;;;;;;5012375;28;20178;-88
2023/02/13 06:49:16;;;;;;;200.20;186.97;;;5.60;94.70;;;;;;5013826;28;20170;-89
2023/02/13 06:51:42;;;;;;;203.07;189.60;;;5.70;94.70;;;;;;5012479;28;20199;-89
2023/02/13 06:54:07;;;;;;;202.13;188.40;;;5.70;94.70;;;;;;5012493;28;20528;-88
2023/02/13 06:56:33;;;;;;;201.20;188.10;;;5.70;94.70;;;;;;5012444;28;20228;-88
2023/02/13 06:58:59;;;;;;;197.50;184.27;;;5.70;94.70;;;;;;5012387;28;20193;-88
2023/02/13 07:01:24;;;;;;;207.00;193.17;;;5.60;94.70;;;;;;5015407;28;20193;-88
2023/02/13 07:03:50;;;;;;;207.40;193.40;;;5.60;94.70;;;;;;5016098;28;20204;-88
2023/02/13 07:06:19;;;;;;;200.53;187.10;;;5.60;94.70;;;;;;5017239;28;20635;-85
2023/02/13 07:08:46;;;;;;;205.87;192.17;;;5.60;94.70;;;;;;5016074;28;20185;-88
2023/02/13 07:11:23;;;;;;;201.03;187.60;;;5.50;94.70;;;;;;5016216;28;20194;-87
2023/02/13 07:13:48;;;;;;;195.73;182.57;;;5.60;94.80;;;;;;5016311;28;20176;-88
2023/02/13 07:16:14;;;;;;;198.97;185.00;;;5.60;94.70;;;;;;5016397;28;20181;-88
2023/02/13 07:18:40;;;;;;;200.43;186.53;;;5.60;94.70;;;;;;5016253;28;20179;-89
2023/02/13 07:21:06;;;;;;;212.53;198.27;;;5.60;94.70;;;;;;5017089;28;20546;-88
2023/02/13 07:23:32;;;;;;;208.80;195.17;;;5.50;94.70;;;;;;5015947;28;20197;-87
2023/02/13 07:25:59;;;;;;;209.77;195.43;;;5.60;94.80;;;;;;5017404;28;20189;-87
2023/02/13 07:28:25;;;;;;;200.23;186.10;;;5.60;94.80;;;;;;5017822;28;20209;-91
2023/02/13 07:30:51;;;;;;;202.37;188.60;;;5.60;94.80;;;;;;5017606;28;20170;-89
2023/02/13 07:33:17;;;;;;;202.27;188.47;;;5.70;94.80;;;;;;5016409;28;20188;-87
2023/02/13 07:35:47;;;;;;;196.47;182.90;;;5.60;94.80;;;;;;5017292;28;20643;-88
2023/02/13 07:38:13;;;;;;;199.23;185.77;;;5.60;94.80;;;;;;5015764;28;20181;-87
2023/02/13 07:40:38;;;;;;;203.33;189.00;;;5.70;94.70;;;;;;5015808;28;20183;-88
2023/02/13 07:43:04;;;;;;;196.07;182.83;;;5.70;94.70;;;;;;5015469;28;20296;-88
2023/02/13 07:45:30;;;;;;;194.93;181.70;;;5.70;94.70;;;;;;5017373;28;20540;-88
2023/02/13 07:47:55;;;;;;;195.30;181.60;;;5.70;94.70;;;;;;5015660;28;20174;-88
2023/02/13 07:50:21;;;;;;;196.33;182.90;;;5.70;94.70;;;;;;5015224;28;20180;-88
2023/02/13 07:52:53;;;;;;;205.10;191.30;;;5.70;94.70;;;;;;5016567;28;20228;-88
2023/02/13 07:55:19;;;;;;;202.33;188.50;;;5.70;94.70;;;;;;5016673;28;20180;-88
2023/02/13 07:57:44;;;;;;;209.33;195.67;;;5.70;94.70;;;;;;5015213;28;20181;-87
2023/02/13 08:00:10;;;;;;;218.53;204.03;;;5.80;94.70;;;;;;5016315;28;20659;-88
2023/02/13 08:02:36;;;;;;;207.77;194.37;;;5.70;94.70;;;;;;5014902;28;20197;-88
2023/02/13 08:05:01;;;;;;;214.87;201.17;;;5.70;94.70;;;;;;5014972;28;20683;-88
2023/02/13 08:07:27;;;;;;;220.83;206.60;;;5.80;94.70;;;;;;5015333;28;20177;-88
2023/02/13 08:12:36;;;;;;;231.50;216.57;;;5.80;94.70;;;;;;5015955;28;20220;-87
2023/02/13 08:15:02;;;;;;;218.80;204.47;;;5.80;94.70;;;;;;5016287;28;20648;-87
2023/02/13 08:17:28;;;;;;;222.87;208.37;;;5.80;94.70;;;;;;5014612;28;20188;-88
2023/02/13 08:19:53;;;;;;;218.00;203.97;;;5.80;94.70;;;;;;5014732;28;20181;-87
2023/02/13 08:22:19;;;;;;;225.07;210.13;;;5.80;94.70;;;;;;5016404;28;20193;-88
2023/02/13 08:24:45;;;;;;;217.97;203.30;;;5.80;94.80;;;;;;5014936;28;20560;-87
2023/02/13 08:27:12;;;;;;;219.13;204.57;;;5.80;94.80;;;;;;5016108;28;20194;-87
2023/02/13 08:29:37;;;;;;;219.63;204.63;;;5.80;94.70;;;;;;5015032;28;20181;-87
2023/02/13 08:32:03;;;;;;;221.23;206.30;;;5.90;94.80;;;;;;5015713;28;20189;-87
2023/02/13 08:34:29;;;;;;;220.80;205.77;;;5.90;94.80;;;;;;5014856;28;20647;-87
2023/02/13 08:36:54;;;;;;;219.73;205.20;;;5.90;94.80;;;;;;5014591;28;20223;-87
2023/02/13 08:39:20;;;;;;;222.70;207.93;;;5.90;94.80;;;;;;5014755;28;20185;-87
2023/02/13 08:41:45;;;;;;;218.10;203.43;;;5.90;94.80;;;;;;5016139;28;20219;-87
2023/02/13 08:44:11;;;;;;;225.60;210.57;;;5.90;94.80;;;;;;5014344;28;20201;-87
2023/02/13 08:46:36;;;;;;;219.20;204.50;;;5.90;94.80;;;;;;5015816;28;20177;-87
2023/02/13 08:49:02;;;;;;;218.37;204.00;;;6.00;94.80;;;;;;5015705;28;20169;-87
2023/02/13 08:51:28;;;;;;;224.50;209.90;;;6.00;94.80;;;;;;5015342;28;20541;-87
2023/02/13 08:53:53;;;;;;;226.10;211.60;;;6.00;94.80;;;;;;5015391;28;20181;-87
2023/02/13 08:56:19;;;;;;;237.77;222.53;;;6.00;94.80;;;;;;5014565;28;20664;-87
2023/02/13 08:58:48;;;;;;;242.90;227.33;;;6.00;94.80;;;;;;5015829;28;20232;-87
2023/02/13 09:01:14;;;;;;;234.07;218.90;;;6.00;94.80;;;;;;5016131;28;20280;-87
2023/02/13 09:03:39;;;;;;;239.13;223.40;;;6.00;94.80;;;;;;5016220;28;20679;-87
2023/02/13 09:06:05;;;;;;;233.83;217.97;;;6.00;94.80;;;;;;5014654;28;20178;-87
2023/02/13 09:08:31;;;;;;;232.47;217.23;;;6.00;94.80;;;;;;5014581;28;20177;-87
2023/02/13 09:11:00;;;;;;;239.70;224.13;;;6.00;94.80;;;;;;5014304;28;20652;-92
2023/02/13 09:13:26;;;;;;;215.10;200.40;;;6.00;94.80;;;;;;5014186;28;20216;-87
2023/02/13 09:15:52;;;;;;;229.60;214.40;;;6.10;94.80;;;;;;5013861;28;20177;-88
2023/02/13 09:18:18;;;;;;;230.63;214.77;;;6.10;94.80;;;;;;5013846;28;20207;-88
2023/02/13 09:20:43;;;;;;;221.97;206.17;;;6.10;94.70;;;;;;5013349;28;20268;-87
2023/02/13 09:23:09;;;;;;;218.53;202.63;;;6.10;94.70;;;;;;5012601;28;20181;-89
2023/02/13 09:25:35;;;;;;;212.07;196.67;;;6.10;94.80;;;;;;5013719;28;20251;-88
2023/02/13 09:28:01;;;;;;;212.53;197.03;;;6.10;94.80;;;;;;5014835;28;20191;-88
2023/02/13 09:30:26;;;;;;;207.00;192.10;;;6.10;94.70;;;;;;5014969;28;20180;-88
2023/02/13 09:32:53;;;;;;;199.33;183.73;;;6.10;94.80;;;;;;5014745;28;20189;-87
2023/02/13 09:35:20;;;;;;;199.20;184.57;;;6.20;94.80;;;;;;5014827;28;20193;-88
2023/02/13 09:37:46;;;;;;;201.83;186.87;;;6.30;94.80;;;;;;5015645;28;20257;-87
2023/02/13 09:40:20;;;;;;;201.93;186.87;;;6.30;94.70;;;;;;5015133;28;20186;-87
2023/02/13 09:42:47;;;;;;;195.93;181.50;;;6.30;94.70;;;;;;5015111;28;20738;-87
2023/02/13 09:45:15;;;;;;;191.73;177.57;;;6.30;94.70;;;;;;5013698;28;20201;-87
2023/02/13 09:47:43;;;;;;;188.10;173.73;;;6.30;94.70;;;;;;5014845;28;20224;-88
2023/02/13 09:50:21;;;;;;;186.57;172.77;;;6.30;94.60;;;;;;5014658;28;20177;-87
2023/02/13 09:52:49;;;;;;;171.20;158.17;;;6.30;94.60;;;;;;5013623;28;20196;-87
2023/02/13 09:55:14;;;;;;;159.00;146.53;;;6.20;94.50;;;;;;5014276;28;20631;-87
2023/02/13 09:57:46;;;;;;;153.87;141.73;;;6.20;94.40;;;;;;5013829;28;20193;-87
2023/02/13 10:00:16;;;;;;;141.27;130.07;;;6.20;94.20;;;;;;5013480;28;20185;-88
2023/02/13 10:02:57;;;;;;;137.17;125.93;;;6.20;94.00;;;;;;5014723;28;20572;-87
2023/02/13 10:05:51;;;;;;;138.73;127.67;;;6.20;93.90;;;;;;5015417;28;20590;-87
2023/02/13 10:08:48;;;;;;;140.00;128.70;;;6.30;93.80;;;;;;5013729;28;20158;-89
2023/02/13 10:11:38;;;;;;;121.80;111.77;;;6.30;93.80;;;;;;5013821;28;20702;-88
2023/02/13 10:14:25;;;;;;;127.90;117.60;;;6.30;93.50;;;;;;5013709;28;20162;-88
2023/02/13 10:17:23;;;;;;;118.43;107.93;;;6.30;93.40;;;;;;5013721;28;20177;-87
2023/02/13 10:19:57;;;;;;;116.27;106.33;;;6.30;93.30;;;;;;4988346;28;20189;-87
2023/02/13 10:22:29;;;;;;;115.63;106.13;;;6.30;92.90;;;;;;5013323;28;20237;-87
2023/02/13 10:25:15;;;;;;;111.13;101.23;;;6.30;92.80;;;;;;5014854;28;20697;-87
2023/02/13 10:27:49;;;;;;;109.63;100.50;;;6.40;92.70;;;;;;5013272;28;20185;-88
2023/02/13 10:30:16;;;;;;;97.60;89.03;;;6.30;92.50;;;;;;5015365;28;20153;-87
2023/02/13 10:33:18;;;;;;;94.23;85.83;;;6.30;92.30;;;;;;5015051;28;20185;-87
2023/02/13 10:35:49;;;;;;;94.47;86.47;;;6.30;92.00;;;;;;5016822;28;20157;-87
2023/02/13 10:38:19;;;;;;;89.00;80.77;;;6.40;92.10;;;;;;5017532;28;20173;-87
2023/02/13 10:41:19;;;;;;;92.87;84.53;;;6.40;91.90;;;;;;5019102;28;20168;-87
2023/02/13 10:44:21;;;;;;;80.77;73.17;;;6.50;91.90;;;;;;5017162;28;20201;-88
2023/02/13 10:47:33;;;;;;;85.17;76.83;;;6.40;91.40;;;;;;5013174;28;20185;-88
2023/02/13 10:50:27;;;;;;;74.10;67.43;;;6.40;91.30;;;;;;5016383;28;20177;-87
2023/02/13 10:53:04;;;;;;;78.57;71.37;;;6.50;91.30;;;;;;5016567;28;20216;-88
2023/02/13 10:55:48;;;;;;;77.10;70.00;;;6.50;91.20;;;;;;5018864;28;20168;-89
2023/02/13 10:58:31;;;;;;;73.40;66.60;;;6.50;91.20;;;;;;5016461;28;20223;-88
2023/02/13 11:01:18;;;;;;;75.43;68.67;;;6.50;90.80;;;;;;5016309;28;20624;-89
2023/02/13 11:03:46;;;;;;;76.33;69.97;;;6.50;90.80;;;;;;5016102;28;20545;-89
2023/02/13 11:06:15;;;;;;;79.83;72.83;;;6.60;90.90;;;;;;5017306;28;20169;-88
2023/02/13 11:08:44;;;;;;;76.13;69.17;;;6.60;90.90;;;;;;5016075;28;20170;-88
2023/02/13 11:11:33;;;;;;;71.70;65.57;;;6.60;90.80;;;;;;5016705;28;20193;-87
2023/02/13 11:14:21;;;;;;;66.27;60.17;;;6.60;90.40;;;;;;5017347;28;20185;-87
2023/02/13 11:17:04;;;;;;;63.47;57.47;;;6.60;89.80;;;;;;5017582;28;20655;-87
2023/02/13 11:19:38;;;;;;;66.70;60.27;;;6.60;89.60;;;;;;5017090;28;20181;-89
2023/02/13 11:22:10;;;;;;;63.90;57.47;;;6.70;89.50;;;;;;5018477;28;20267;-87
2023/02/13 11:24:38;;;;;;;61.37;55.77;;;6.60;88.90;;;;;;5017923;28;20256;-87
2023/02/13 11:27:12;;;;;;;58.33;52.63;;;6.60;88.70;;;;;;5016610;28;20199;-88
2023/02/13 11:29:52;;;;;;;55.00;49.40;;;6.60;88.30;;;;;;5017036;28;20149;-88
2023/02/13 11:32:20;;;;;;;56.40;50.83;;;6.60;88.20;;;;;;5016639;28;20630;-87
2023/02/13 11:34:49;;;;;;;59.63;53.30;;;6.70;88.40;;;;;;5017121;28;20183;-86
2023/02/13 11:37:17;;;;;;;58.10;52.70;;;6.70;88.30;;;;;;5016534;28;20177;-87
2023/02/13 11:39:45;;;;;;;54.77;49.40;;;6.70;88.30;;;;;;5017036;28;20169;-87
2023/02/13 11:42:30;;;;;;;51.93;46.57;;;6.70;87.70;;;;;;5016507;28;20193;-88
2023/02/13 11:45:23;;;;;;;52.00;47.13;;;6.60;87.50;;;;;;5015326;28;20200;-88
2023/02/13 11:47:49;;;;;;;54.40;49.00;;;6.70;87.80;;;;;;5014524;28;20597;-87
2023/02/13 11:50:24;;;;;;;53.63;48.03;;;6.80;87.90;;;;;;5016838;28;20174;-90
2023/02/13 11:52:57;;;;;;;53.10;48.00;;;6.80;87.70;;;;;;5015169;28;20193;-87
2023/02/13 11:55:37;;;;;;;54.63;49.13;;;6.80;87.60;;;;;;5016711;28;20199;-87
2023/02/13 11:58:14;;;;;;;53.97;48.67;;;6.80;87.70;;;;;;5014941;28;20169;-87
2023/02/13 12:00:41;;;;;;;55.23;49.93;;;6.90;87.80;;;;;;5014626;28;20185;-88
2023/02/13 12:03:27;;;;;;;51.77;46.33;;;6.80;87.70;;;;;;5015200;28;20182;-88
2023/02/13 12:06:00;;;;;;;51.00;45.73;;;6.80;87.10;;;;;;5015626;28;20181;-87
2023/02/13 12:08:26;;;;;;;53.40;47.90;;;6.80;87.30;;;;;;5015970;28;20182;-88
2023/02/13 12:10:54;;;;;;;53.20;47.87;;;6.90;87.50;;;;;;5015407;28;20182;-88
2023/02/13 12:13:37;;;;;;;53.03;47.23;;;7.00;87.70;;;;;;5016355;28;20192;-88
2023/02/13 12:16:28;;;;;;;52.60;46.80;;;6.90;86.90;;;;;;5014912;28;20185;-88
2023/02/13 12:18:58;;;;;;;52.00;47.00;;;6.90;87.00;;;;;;5014979;28;20601;-89
2023/02/13 12:21:37;;;;;;;51.27;45.87;;;7.00;87.20;;;;;;5014558;28;20225;-87
2023/02/13 12:24:32;;;;;;;51.07;46.20;;;6.80;86.20;;;;;;5015688;28;20189;-88
2023/02/13 12:27:17;;;;;;;50.60;45.60;;;6.90;86.60;;;;;;5001468;28;20263;-88
2023/02/13 12:29:49;;;;;;;53.57;48.27;;;7.00;86.70;;;;;;5015447;28;20174;-88
2023/02/13 12:32:18;;;;;;;49.80;44.97;;;7.10;87.10;;;;;;5014190;28;20577;-88
2023/02/13 12:35:00;;;;;;;51.63;46.53;;;7.10;87.10;;;;;;5015451;28;20201;-88
2023/02/13 12:37:53;;;;;;;51.43;45.90;;;7.10;86.90;;;;;;5015559;28;20205;-88
2023/02/13 12:40:41;;;;;;;48.90;43.73;;;7.00;86.00;;;;;;5014122;28;20174;-88
2023/02/13 12:43:07;;;;;;;47.00;41.33;;;6.90;85.40;;;;;;5014283;28;20193;-87
2023/02/13 12:45:51;;;;;;;51.07;45.80;;;6.90;85.10;;;;;;5014371;28;20170;-87
2023/02/13 12:48:50;;;;;;;46.50;41.60;;;6.90;85.40;;;;;;5014164;28;20177;-87
2023/02/13 12:51:16;;;;;;;52.37;43.93;;;6.80;85.10;;;;;;5014014;28;20672;-88
2023/02/13 12:53:53;;;;;;;52.10;44.23;;;6.90;85.30;;;;;;5014193;28;20182;-87
2023/02/13 12:56:25;;;;;;;50.03;44.87;;;7.00;85.70;;;;;;5014411;28;20659;-88
2023/02/13 12:59:33;;;;;;;49.77;44.77;;;7.10;86.10;;;;;;5014178;28;20679;-87
2023/02/13 13:02:20;;;;;;;54.27;46.10;;;7.00;85.80;;;;;;4981687;28;20239;-87
2023/02/13 13:05:13;;;;;;;52.70;46.97;;;7.00;85.70;;;;;;5015991;28;20193;-87
2023/02/13 13:07:57;;;;;;;52.03;45.07;;;7.00;85.70;;;;;;5014050;28;20170;-88
2023/02/13 13:10:41;;;;;;;50.47;45.33;;;7.00;85.70;;;;;;5014415;28;20172;-87
2023/02/13 13:13:20;;;;;;;48.60;43.50;;;7.00;85.80;;;;;;5014070;28;20755;-87
2023/02/13 13:16:09;;;;;;;47.57;42.33;;;7.00;85.80;;;;;;5015485;28;20164;-87
2023/02/13 13:18:40;;;;;;;47.50;42.93;;;6.90;85.60;;;;;;5013672;28;20166;-88
2023/02/13 13:21:21;;;;;;;46.80;42.10;;;7.00;86.00;;;;;;5013428;28;20201;-89
2023/02/13 13:24:04;;;;;;;47.10;42.17;;;7.00;86.00;;;;;;5013617;28;20229;-88
2023/02/13 13:26:48;;;;;;;45.60;41.00;;;7.10;86.00;;;;;;5013986;28;20193;-87
2023/02/13 13:29:41;;;;;;;46.70;41.77;;;7.00;85.30;;;;;;5014685;28;20182;-87
2023/02/13 13:32:11;;;;;;;45.27;40.23;;;7.10;85.80;;;;;;5017322;28;20263;-87